This is the latest recevied weather packets stored in our database for station/object IR3AS. If no packets are shown the sender has not sent any weather packets the latest 10 day(s).
| Time | Temp. | Humidity | Pressure | Rain* | Wind** | Luminosity | Snow |
|---|---|---|---|---|---|---|---|
| 1787499610 | 15.56° C | 70% | 868.5 hPa | 0 mm | - | - | - |
| 1787499310 | 15.56° C | 70% | 868.9 hPa | 0 mm | - | - | - |
| 1787499010 | 15.56° C | 70% | 869.1 hPa | 0 mm | - | - | - |
| 1787498710 | 15.56° C | 69% | 869.6 hPa | 0 mm | - | - | - |
| 1787498410 | 15.56° C | 68% | 868.6 hPa | 0 mm | - | - | - |
| 1787498110 | 15° C | 68% | 868.6 hPa | 0 mm | - | - | - |
| 1787497810 | 15.56° C | 65% | 869.2 hPa | 0 mm | - | - | - |
| 1787497510 | 16.11° C | 62% | 869.5 hPa | 0 mm | - | - | - |
| 1787497245 | 17.22° C | 60% | 867.8 hPa | 0 mm | - | - | - |
| 1787497210 | 17.22° C | 60% | 867.8 hPa | 0 mm | - | - | - |
| 1787496943 | 18.33° C | 58% | 868.7 hPa | 0 mm | - | - | - |
| 1787496910 | 18.33° C | 58% | 868.7 hPa | 0 mm | - | - | - |
| 1787496610 | 19.44° C | 55% | 868.8 hPa | 0 mm | - | - | - |
| 1787496367 | 21.11° C | 54% | 867.9 hPa | 0 mm | - | - | - |
| 1787496310 | 21.11° C | 54% | 867.9 hPa | 0 mm | - | - | - |
| 1787496010 | 22.22° C | 54% | 868.2 hPa | 0 mm | - | - | - |
| 1787495710 | 22.78° C | 54% | 868.2 hPa | 0 mm | - | - | - |
| 1787495410 | 22.78° C | 55% | 868.2 hPa | 0 mm | - | - | - |
| 1787495110 | 22.78° C | 56% | 868.3 hPa | 0 mm | - | - | - |
| 1787494810 | 22.22° C | 58% | 869.1 hPa | 0 mm | - | - | - |
| 1787494510 | 21.11° C | 60% | 868.5 hPa | 0 mm | - | - | - |
| 1787494210 | 20.56° C | 58% | 866.9 hPa | 0 mm | - | - | - |
| 1787493910 | 20.56° C | 58% | 868.4 hPa | 0 mm | - | - | - |
| 1787493610 | 20.56° C | 60% | 867.1 hPa | 0 mm | - | - | - |
| 1787493310 | 20.56° C | 58% | 868.4 hPa | 0 mm | - | - | - |
* Rain latest hour (hover to see other rain measurements)
** Current wind speed in m/s (hover to see current wind gust speed)